sensor_id;sensor_type;location;lat;lon;timestamp;P1;durP1;ratioP1;P2;durP2;ratioP2
67902;SDS011;54708;43.612;1.568;2023-01-28T00:00:24;13.23;;;7.47;;
67902;SDS011;54708;43.612;1.568;2023-01-28T00:02:49;16.40;;;7.80;;
67902;SDS011;54708;43.612;1.568;2023-01-28T00:05:15;13.70;;;7.47;;
67902;SDS011;54708;43.612;1.568;2023-01-28T00:07:41;14.38;;;7.63;;
67902;SDS011;54708;43.612;1.568;2023-01-28T00:10:06;12.13;;;6.65;;
67902;SDS011;54708;43.612;1.568;2023-01-28T00:12:32;14.40;;;7.25;;
67902;SDS011;54708;43.612;1.568;2023-01-28T00:14:57;13.07;;;7.13;;
67902;SDS011;54708;43.612;1.568;2023-01-28T00:17:23;16.13;;;7.00;;
67902;SDS011;54708;43.612;1.568;2023-01-28T00:19:48;10.52;;;6.75;;
67902;SDS011;54708;43.612;1.568;2023-01-28T00:22:13;10.27;;;7.05;;
67902;SDS011;54708;43.612;1.568;2023-01-28T00:24:39;12.85;;;7.50;;
67902;SDS011;54708;43.612;1.568;2023-01-28T00:27:04;13.93;;;6.97;;
67902;SDS011;54708;43.612;1.568;2023-01-28T00:29:30;13.15;;;7.90;;
67902;SDS011;54708;43.612;1.568;2023-01-28T00:31:55;11.90;;;6.78;;
67902;SDS011;54708;43.612;1.568;2023-01-28T00:34:20;17.00;;;9.00;;
67902;SDS011;54708;43.612;1.568;2023-01-28T00:36:46;12.48;;;6.75;;
67902;SDS011;54708;43.612;1.568;2023-01-28T00:39:21;14.48;;;6.85;;
67902;SDS011;54708;43.612;1.568;2023-01-28T00:41:47;12.23;;;8.85;;
67902;SDS011;54708;43.612;1.568;2023-01-28T00:44:12;11.75;;;6.05;;
67902;SDS011;54708;43.612;1.568;2023-01-28T00:46:38;14.02;;;7.53;;
67902;SDS011;54708;43.612;1.568;2023-01-28T00:49:06;20.92;;;8.55;;
67902;SDS011;54708;43.612;1.568;2023-01-28T00:51:31;13.82;;;7.72;;
67902;SDS011;54708;43.612;1.568;2023-01-28T00:53:57;11.02;;;6.78;;
67902;SDS011;54708;43.612;1.568;2023-01-28T00:56:22;14.75;;;6.57;;
67902;SDS011;54708;43.612;1.568;2023-01-28T00:58:48;14.05;;;6.78;;
67902;SDS011;54708;43.612;1.568;2023-01-28T01:01:18;9.80;;;6.53;;
67902;SDS011;54708;43.612;1.568;2023-01-28T01:03:48;12.68;;;7.00;;
67902;SDS011;54708;43.612;1.568;2023-01-28T01:06:33;12.90;;;7.40;;
67902;SDS011;54708;43.612;1.568;2023-01-28T01:09:00;14.95;;;6.97;;
67902;SDS011;54708;43.612;1.568;2023-01-28T01:11:26;15.48;;;8.15;;
67902;SDS011;54708;43.612;1.568;2023-01-28T01:13:52;12.40;;;6.15;;
67902;SDS011;54708;43.612;1.568;2023-01-28T01:16:19;10.57;;;7.60;;
67902;SDS011;54708;43.612;1.568;2023-01-28T01:18:45;11.10;;;6.40;;
67902;SDS011;54708;43.612;1.568;2023-01-28T01:21:12;17.83;;;7.45;;
67902;SDS011;54708;43.612;1.568;2023-01-28T01:23:39;13.88;;;6.60;;
67902;SDS011;54708;43.612;1.568;2023-01-28T01:26:05;10.95;;;6.07;;
67902;SDS011;54708;43.612;1.568;2023-01-28T01:28:31;8.95;;;6.03;;
67902;SDS011;54708;43.612;1.568;2023-01-28T01:31:00;13.15;;;7.05;;
67902;SDS011;54708;43.612;1.568;2023-01-28T01:33:33;11.73;;;6.13;;
67902;SDS011;54708;43.612;1.568;2023-01-28T01:35:59;11.82;;;6.55;;
67902;SDS011;54708;43.612;1.568;2023-01-28T01:38:24;8.15;;;5.95;;
67902;SDS011;54708;43.612;1.568;2023-01-28T01:40:50;11.48;;;6.25;;
67902;SDS011;54708;43.612;1.568;2023-01-28T01:43:19;14.00;;;6.07;;
67902;SDS011;54708;43.612;1.568;2023-01-28T01:45:46;8.15;;;5.95;;
67902;SDS011;54708;43.612;1.568;2023-01-28T01:48:15;11.73;;;6.72;;
67902;SDS011;54708;43.612;1.568;2023-01-28T01:50:44;11.50;;;7.05;;
67902;SDS011;54708;43.612;1.568;2023-01-28T01:53:15;11.60;;;6.57;;
67902;SDS011;54708;43.612;1.568;2023-01-28T01:55:42;17.05;;;7.25;;
67902;SDS011;54708;43.612;1.568;2023-01-28T01:58:12;11.88;;;6.63;;
67902;SDS011;54708;43.612;1.568;2023-01-28T02:00:41;14.38;;;7.18;;
67902;SDS011;54708;43.612;1.568;2023-01-28T02:03:07;11.77;;;7.28;;
67902;SDS011;54708;43.612;1.568;2023-01-28T02:05:34;12.63;;;6.85;;
67902;SDS011;54708;43.612;1.568;2023-01-28T02:07:59;10.00;;;5.40;;
67902;SDS011;54708;43.612;1.568;2023-01-28T02:10:44;9.40;;;6.20;;
67902;SDS011;54708;43.612;1.568;2023-01-28T02:13:09;11.95;;;6.35;;
67902;SDS011;54708;43.612;1.568;2023-01-28T02:15:35;12.60;;;6.82;;
67902;SDS011;54708;43.612;1.568;2023-01-28T02:18:00;13.73;;;6.57;;
67902;SDS011;54708;43.612;1.568;2023-01-28T02:24:20;8.02;;;6.35;;
67902;SDS011;54708;43.612;1.568;2023-01-28T02:29:11;14.60;;;7.40;;
67902;SDS011;54708;43.612;1.568;2023-01-28T02:34:24;10.23;;;6.20;;
67902;SDS011;54708;43.612;1.568;2023-01-28T02:37:15;10.52;;;6.20;;
67902;SDS011;54708;43.612;1.568;2023-01-28T02:39:44;10.02;;;6.68;;
67902;SDS011;54708;43.612;1.568;2023-01-28T02:42:33;16.65;;;7.43;;
67902;SDS011;54708;43.612;1.568;2023-01-28T02:44:59;15.13;;;6.82;;
67902;SDS011;54708;43.612;1.568;2023-01-28T02:47:24;11.63;;;7.00;;
67902;SDS011;54708;43.612;1.568;2023-01-28T02:50:10;14.65;;;6.30;;
67902;SDS011;54708;43.612;1.568;2023-01-28T03:00:55;12.90;;;7.05;;
67902;SDS011;54708;43.612;1.568;2023-01-28T03:03:25;9.85;;;6.07;;
67902;SDS011;54708;43.612;1.568;2023-01-28T03:05:55;10.80;;;6.70;;
67902;SDS011;54708;43.612;1.568;2023-01-28T03:08:35;13.05;;;6.85;;
67902;SDS011;54708;43.612;1.568;2023-01-28T03:11:20;8.65;;;6.35;;
67902;SDS011;54708;43.612;1.568;2023-01-28T03:14:04;9.20;;;6.55;;
67902;SDS011;54708;43.612;1.568;2023-01-28T03:16:49;10.77;;;6.40;;
67902;SDS011;54708;43.612;1.568;2023-01-28T03:19:33;11.23;;;6.03;;
67902;SDS011;54708;43.612;1.568;2023-01-28T03:22:17;9.20;;;6.63;;
67902;SDS011;54708;43.612;1.568;2023-01-28T03:25:02;11.63;;;6.22;;
67902;SDS011;54708;43.612;1.568;2023-01-28T03:27:47;10.48;;;6.55;;
67902;SDS011;54708;43.612;1.568;2023-01-28T03:33:20;12.32;;;6.07;;
67902;SDS011;54708;43.612;1.568;2023-01-28T03:36:06;9.02;;;6.20;;
67902;SDS011;54708;43.612;1.568;2023-01-28T03:38:50;10.13;;;6.20;;
67902;SDS011;54708;43.612;1.568;2023-01-28T03:41:22;9.52;;;6.85;;
67902;SDS011;54708;43.612;1.568;2023-01-28T03:43:49;12.13;;;7.03;;
67902;SDS011;54708;43.612;1.568;2023-01-28T03:46:15;11.52;;;6.47;;
67902;SDS011;54708;43.612;1.568;2023-01-28T03:48:42;10.88;;;6.97;;
67902;SDS011;54708;43.612;1.568;2023-01-28T03:51:07;10.95;;;7.25;;
67902;SDS011;54708;43.612;1.568;2023-01-28T03:53:33;11.98;;;7.07;;
67902;SDS011;54708;43.612;1.568;2023-01-28T03:55:58;10.77;;;7.45;;
67902;SDS011;54708;43.612;1.568;2023-01-28T03:58:24;10.80;;;6.38;;
67902;SDS011;54708;43.612;1.568;2023-01-28T04:01:10;13.05;;;6.38;;
67902;SDS011;54708;43.612;1.568;2023-01-28T04:03:35;15.20;;;7.05;;
67902;SDS011;54708;43.612;1.568;2023-01-28T04:06:02;13.07;;;7.40;;
67902;SDS011;54708;43.612;1.568;2023-01-28T04:08:29;11.52;;;6.57;;
67902;SDS011;54708;43.612;1.568;2023-01-28T04:10:54;10.43;;;7.15;;
67902;SDS011;54708;43.612;1.568;2023-01-28T04:13:20;9.68;;;6.72;;
67902;SDS011;54708;43.612;1.568;2023-01-28T04:15:45;10.43;;;6.82;;
67902;SDS011;54708;43.612;1.568;2023-01-28T04:18:11;12.75;;;7.47;;
67902;SDS011;54708;43.612;1.568;2023-01-28T04:20:37;12.40;;;6.18;;
67902;SDS011;54708;43.612;1.568;2023-01-28T04:23:03;10.23;;;7.13;;
67902;SDS011;54708;43.612;1.568;2023-01-28T04:25:29;11.48;;;7.82;;
67902;SDS011;54708;43.612;1.568;2023-01-28T04:27:55;11.75;;;7.57;;
67902;SDS011;54708;43.612;1.568;2023-01-28T04:30:20;13.55;;;7.60;;
67902;SDS011;54708;43.612;1.568;2023-01-28T04:32:46;10.20;;;6.60;;
67902;SDS011;54708;43.612;1.568;2023-01-28T04:35:11;12.23;;;7.18;;
67902;SDS011;54708;43.612;1.568;2023-01-28T04:37:39;10.43;;;6.93;;
67902;SDS011;54708;43.612;1.568;2023-01-28T04:40:05;11.90;;;6.72;;
67902;SDS011;54708;43.612;1.568;2023-01-28T04:42:31;13.02;;;7.40;;
67902;SDS011;54708;43.612;1.568;2023-01-28T04:44:56;12.18;;;6.85;;
67902;SDS011;54708;43.612;1.568;2023-01-28T04:47:22;10.48;;;7.15;;
67902;SDS011;54708;43.612;1.568;2023-01-28T04:49:47;9.98;;;6.15;;
67902;SDS011;54708;43.612;1.568;2023-01-28T04:52:13;8.95;;;6.20;;
67902;SDS011;54708;43.612;1.568;2023-01-28T04:54:38;13.77;;;7.20;;
67902;SDS011;54708;43.612;1.568;2023-01-28T04:57:03;12.18;;;7.63;;
67902;SDS011;54708;43.612;1.568;2023-01-28T04:59:29;10.65;;;6.95;;
67902;SDS011;54708;43.612;1.568;2023-01-28T05:01:54;10.63;;;6.97;;
67902;SDS011;54708;43.612;1.568;2023-01-28T05:04:20;10.02;;;7.07;;
67902;SDS011;54708;43.612;1.568;2023-01-28T05:06:45;13.20;;;7.03;;
67902;SDS011;54708;43.612;1.568;2023-01-28T05:09:11;14.13;;;7.93;;
67902;SDS011;54708;43.612;1.568;2023-01-28T05:11:36;9.82;;;7.32;;
67902;SDS011;54708;43.612;1.568;2023-01-28T05:14:01;13.55;;;7.65;;
67902;SDS011;54708;43.612;1.568;2023-01-28T05:16:27;14.10;;;7.68;;
67902;SDS011;54708;43.612;1.568;2023-01-28T05:18:52;14.45;;;7.68;;
67902;SDS011;54708;43.612;1.568;2023-01-28T05:21:18;12.98;;;8.38;;
67902;SDS011;54708;43.612;1.568;2023-01-28T05:23:43;9.98;;;6.97;;
67902;SDS011;54708;43.612;1.568;2023-01-28T05:26:08;11.18;;;7.00;;
67902;SDS011;54708;43.612;1.568;2023-01-28T05:28:34;13.25;;;7.28;;
67902;SDS011;54708;43.612;1.568;2023-01-28T05:31:03;13.68;;;8.13;;
67902;SDS011;54708;43.612;1.568;2023-01-28T05:33:29;12.88;;;7.53;;
67902;SDS011;54708;43.612;1.568;2023-01-28T05:35:55;12.32;;;8.43;;
67902;SDS011;54708;43.612;1.568;2023-01-28T05:38:20;12.23;;;7.75;;
67902;SDS011;54708;43.612;1.568;2023-01-28T05:40:46;13.30;;;8.73;;
67902;SDS011;54708;43.612;1.568;2023-01-28T05:43:11;11.95;;;7.65;;
67902;SDS011;54708;43.612;1.568;2023-01-28T05:45:37;10.73;;;7.40;;
67902;SDS011;54708;43.612;1.568;2023-01-28T05:48:02;11.63;;;7.82;;
67902;SDS011;54708;43.612;1.568;2023-01-28T05:50:28;13.57;;;8.40;;
67902;SDS011;54708;43.612;1.568;2023-01-28T05:52:53;11.07;;;7.43;;
67902;SDS011;54708;43.612;1.568;2023-01-28T05:55:19;11.15;;;7.60;;
67902;SDS011;54708;43.612;1.568;2023-01-28T05:57:44;12.32;;;7.32;;
67902;SDS011;54708;43.612;1.568;2023-01-28T06:00:10;15.68;;;8.23;;
67902;SDS011;54708;43.612;1.568;2023-01-28T06:02:36;17.00;;;9.48;;
67902;SDS011;54708;43.612;1.568;2023-01-28T06:05:01;10.73;;;7.13;;
67902;SDS011;54708;43.612;1.568;2023-01-28T06:07:27;14.40;;;8.43;;
67902;SDS011;54708;43.612;1.568;2023-01-28T06:09:52;12.23;;;7.40;;
67902;SDS011;54708;43.612;1.568;2023-01-28T06:12:18;15.63;;;8.23;;
67902;SDS011;54708;43.612;1.568;2023-01-28T06:14:43;12.35;;;7.40;;
67902;SDS011;54708;43.612;1.568;2023-01-28T06:17:08;13.45;;;8.15;;
67902;SDS011;54708;43.612;1.568;2023-01-28T06:19:34;15.55;;;8.23;;
67902;SDS011;54708;43.612;1.568;2023-01-28T06:21:59;13.98;;;8.55;;
67902;SDS011;54708;43.612;1.568;2023-01-28T06:24:25;14.50;;;7.55;;
67902;SDS011;54708;43.612;1.568;2023-01-28T06:26:50;14.43;;;9.20;;
67902;SDS011;54708;43.612;1.568;2023-01-28T06:29:16;13.32;;;7.15;;
67902;SDS011;54708;43.612;1.568;2023-01-28T06:31:41;17.05;;;8.32;;
67902;SDS011;54708;43.612;1.568;2023-01-28T06:34:07;12.88;;;8.90;;
67902;SDS011;54708;43.612;1.568;2023-01-28T06:36:34;13.65;;;8.15;;
67902;SDS011;54708;43.612;1.568;2023-01-28T06:39:00;13.32;;;8.02;;
67902;SDS011;54708;43.612;1.568;2023-01-28T06:41:25;17.38;;;10.25;;
67902;SDS011;54708;43.612;1.568;2023-01-28T06:43:50;15.95;;;8.40;;
67902;SDS011;54708;43.612;1.568;2023-01-28T06:46:16;13.77;;;8.00;;
67902;SDS011;54708;43.612;1.568;2023-01-28T06:48:41;15.05;;;7.65;;
67902;SDS011;54708;43.612;1.568;2023-01-28T06:51:07;16.30;;;8.88;;
67902;SDS011;54708;43.612;1.568;2023-01-28T06:53:32;14.60;;;9.55;;
67902;SDS011;54708;43.612;1.568;2023-01-28T06:55:57;16.08;;;8.98;;
67902;SDS011;54708;43.612;1.568;2023-01-28T06:58:23;13.57;;;8.68;;
67902;SDS011;54708;43.612;1.568;2023-01-28T07:00:48;12.15;;;8.18;;
67902;SDS011;54708;43.612;1.568;2023-01-28T07:03:14;12.45;;;8.52;;
67902;SDS011;54708;43.612;1.568;2023-01-28T07:05:39;14.75;;;8.52;;
67902;SDS011;54708;43.612;1.568;2023-01-28T07:08:05;14.95;;;9.25;;
67902;SDS011;54708;43.612;1.568;2023-01-28T07:10:30;17.65;;;11.48;;
67902;SDS011;54708;43.612;1.568;2023-01-28T07:12:56;15.32;;;8.93;;
67902;SDS011;54708;43.612;1.568;2023-01-28T07:15:21;17.15;;;9.98;;
67902;SDS011;54708;43.612;1.568;2023-01-28T07:17:46;15.18;;;10.10;;
67902;SDS011;54708;43.612;1.568;2023-01-28T07:20:12;15.90;;;8.15;;
67902;SDS011;54708;43.612;1.568;2023-01-28T07:22:39;17.35;;;8.77;;
67902;SDS011;54708;43.612;1.568;2023-01-28T07:25:06;12.60;;;8.23;;
67902;SDS011;54708;43.612;1.568;2023-01-28T07:27:32;14.05;;;8.05;;
67902;SDS011;54708;43.612;1.568;2023-01-28T07:29:57;15.30;;;8.93;;
67902;SDS011;54708;43.612;1.568;2023-01-28T07:32:23;15.55;;;9.48;;
67902;SDS011;54708;43.612;1.568;2023-01-28T07:34:50;24.70;;;10.32;;
67902;SDS011;54708;43.612;1.568;2023-01-28T07:37:16;17.85;;;10.25;;
67902;SDS011;54708;43.612;1.568;2023-01-28T07:39:42;16.55;;;10.48;;
67902;SDS011;54708;43.612;1.568;2023-01-28T07:42:08;15.13;;;8.75;;
67902;SDS011;54708;43.612;1.568;2023-01-28T07:44:35;19.05;;;9.77;;
67902;SDS011;54708;43.612;1.568;2023-01-28T07:47:04;20.13;;;10.63;;
67902;SDS011;54708;43.612;1.568;2023-01-28T07:49:31;27.00;;;10.50;;
67902;SDS011;54708;43.612;1.568;2023-01-28T07:51:58;16.98;;;10.20;;
67902;SDS011;54708;43.612;1.568;2023-01-28T07:54:23;19.48;;;10.27;;
67902;SDS011;54708;43.612;1.568;2023-01-28T07:56:48;16.90;;;10.10;;
67902;SDS011;54708;43.612;1.568;2023-01-28T07:59:14;13.00;;;9.13;;
67902;SDS011;54708;43.612;1.568;2023-01-28T08:01:39;17.17;;;10.80;;
67902;SDS011;54708;43.612;1.568;2023-01-28T08:04:05;17.48;;;9.23;;
67902;SDS011;54708;43.612;1.568;2023-01-28T08:06:30;13.45;;;8.57;;
67902;SDS011;54708;43.612;1.568;2023-01-28T08:09:01;13.70;;;9.98;;
67902;SDS011;54708;43.612;1.568;2023-01-28T08:11:29;17.05;;;9.02;;
67902;SDS011;54708;43.612;1.568;2023-01-28T08:13:54;18.02;;;10.30;;
67902;SDS011;54708;43.612;1.568;2023-01-28T08:16:19;12.32;;;8.18;;
67902;SDS011;54708;43.612;1.568;2023-01-28T08:18:45;14.13;;;8.90;;
67902;SDS011;54708;43.612;1.568;2023-01-28T08:21:11;14.10;;;9.48;;
67902;SDS011;54708;43.612;1.568;2023-01-28T08:23:36;15.32;;;10.18;;
67902;SDS011;54708;43.612;1.568;2023-01-28T08:26:02;14.98;;;9.13;;
67902;SDS011;54708;43.612;1.568;2023-01-28T08:28:27;15.05;;;8.35;;
67902;SDS011;54708;43.612;1.568;2023-01-28T08:30:52;12.60;;;7.82;;
67902;SDS011;54708;43.612;1.568;2023-01-28T08:33:18;14.57;;;7.60;;
67902;SDS011;54708;43.612;1.568;2023-01-28T08:35:44;17.63;;;10.05;;
67902;SDS011;54708;43.612;1.568;2023-01-28T08:38:10;14.55;;;9.63;;
67902;SDS011;54708;43.612;1.568;2023-01-28T08:40:36;15.50;;;9.70;;
67902;SDS011;54708;43.612;1.568;2023-01-28T08:43:02;15.90;;;10.93;;
67902;SDS011;54708;43.612;1.568;2023-01-28T08:45:28;17.15;;;11.07;;
67902;SDS011;54708;43.612;1.568;2023-01-28T08:47:58;17.98;;;9.77;;
67902;SDS011;54708;43.612;1.568;2023-01-28T08:50:27;17.05;;;10.65;;
67902;SDS011;54708;43.612;1.568;2023-01-28T08:52:56;14.52;;;10.07;;
67902;SDS011;54708;43.612;1.568;2023-01-28T08:55:23;15.73;;;10.95;;
67902;SDS011;54708;43.612;1.568;2023-01-28T08:57:50;23.05;;;11.43;;
67902;SDS011;54708;43.612;1.568;2023-01-28T09:00:15;17.55;;;10.73;;
67902;SDS011;54708;43.612;1.568;2023-01-28T09:02:41;15.48;;;9.75;;
67902;SDS011;54708;43.612;1.568;2023-01-28T09:05:06;17.63;;;10.50;;
67902;SDS011;54708;43.612;1.568;2023-01-28T09:07:36;16.25;;;10.75;;
67902;SDS011;54708;43.612;1.568;2023-01-28T09:10:02;17.10;;;9.68;;
67902;SDS011;54708;43.612;1.568;2023-01-28T09:12:28;15.20;;;9.73;;
67902;SDS011;54708;43.612;1.568;2023-01-28T09:14:54;16.08;;;10.98;;
67902;SDS011;54708;43.612;1.568;2023-01-28T09:17:19;17.88;;;12.00;;
67902;SDS011;54708;43.612;1.568;2023-01-28T09:19:45;24.42;;;10.93;;
67902;SDS011;54708;43.612;1.568;2023-01-28T09:22:10;18.10;;;9.75;;
67902;SDS011;54708;43.612;1.568;2023-01-28T09:24:36;17.70;;;10.30;;
67902;SDS011;54708;43.612;1.568;2023-01-28T09:27:01;18.20;;;10.85;;
67902;SDS011;54708;43.612;1.568;2023-01-28T09:29:27;17.55;;;10.43;;
67902;SDS011;54708;43.612;1.568;2023-01-28T09:31:52;13.13;;;9.38;;
67902;SDS011;54708;43.612;1.568;2023-01-28T09:34:17;17.70;;;9.85;;
67902;SDS011;54708;43.612;1.568;2023-01-28T09:36:43;16.55;;;9.25;;
67902;SDS011;54708;43.612;1.568;2023-01-28T09:39:08;16.15;;;9.50;;
67902;SDS011;54708;43.612;1.568;2023-01-28T09:46:49;12.27;;;8.75;;
67902;SDS011;54708;43.612;1.568;2023-01-28T09:49:26;15.65;;;10.85;;
67902;SDS011;54708;43.612;1.568;2023-01-28T09:51:58;15.48;;;9.65;;
67902;SDS011;54708;43.612;1.568;2023-01-28T09:56:53;14.30;;;9.30;;
67902;SDS011;54708;43.612;1.568;2023-01-28T09:59:29;14.73;;;8.63;;
67902;SDS011;54708;43.612;1.568;2023-01-28T10:01:59;15.93;;;9.68;;
67902;SDS011;54708;43.612;1.568;2023-01-28T10:04:57;15.15;;;9.43;;
67902;SDS011;54708;43.612;1.568;2023-01-28T10:10:27;18.60;;;10.05;;
67902;SDS011;54708;43.612;1.568;2023-01-28T10:13:11;16.48;;;9.65;;
67902;SDS011;54708;43.612;1.568;2023-01-28T10:18:07;20.08;;;11.73;;
67902;SDS011;54708;43.612;1.568;2023-01-28T10:20:53;17.15;;;10.68;;
67902;SDS011;54708;43.612;1.568;2023-01-28T10:23:24;15.02;;;10.75;;
67902;SDS011;54708;43.612;1.568;2023-01-28T10:26:03;15.27;;;10.02;;
67902;SDS011;54708;43.612;1.568;2023-01-28T10:28:29;16.55;;;8.32;;
67902;SDS011;54708;43.612;1.568;2023-01-28T10:30:56;14.80;;;9.88;;
67902;SDS011;54708;43.612;1.568;2023-01-28T10:33:28;15.07;;;9.95;;
67902;SDS011;54708;43.612;1.568;2023-01-28T10:35:56;15.07;;;9.57;;
67902;SDS011;54708;43.612;1.568;2023-01-28T10:38:24;17.00;;;9.88;;
67902;SDS011;54708;43.612;1.568;2023-01-28T10:40:51;13.10;;;9.13;;
67902;SDS011;54708;43.612;1.568;2023-01-28T10:43:20;15.18;;;9.75;;
67902;SDS011;54708;43.612;1.568;2023-01-28T10:48:31;13.05;;;7.70;;
67902;SDS011;54708;43.612;1.568;2023-01-28T10:50:59;12.20;;;7.68;;
67902;SDS011;54708;43.612;1.568;2023-01-28T10:53:43;14.60;;;9.13;;
67902;SDS011;54708;43.612;1.568;2023-01-28T11:04:16;13.52;;;9.07;;
67902;SDS011;54708;43.612;1.568;2023-01-28T11:07:31;18.13;;;10.02;;
67902;SDS011;54708;43.612;1.568;2023-01-28T11:09:49;13.52;;;8.52;;
67902;SDS011;54708;43.612;1.568;2023-01-28T11:12:19;15.82;;;9.52;;
67902;SDS011;54708;43.612;1.568;2023-01-28T11:14:53;22.02;;;11.80;;
67902;SDS011;54708;43.612;1.568;2023-01-28T11:17:19;14.40;;;9.20;;
67902;SDS011;54708;43.612;1.568;2023-01-28T11:19:48;15.55;;;8.75;;
67902;SDS011;54708;43.612;1.568;2023-01-28T11:22:35;11.93;;;9.05;;
67902;SDS011;54708;43.612;1.568;2023-01-28T11:25:04;11.65;;;8.00;;
67902;SDS011;54708;43.612;1.568;2023-01-28T11:27:38;10.30;;;7.75;;
67902;SDS011;54708;43.612;1.568;2023-01-28T11:30:04;9.65;;;7.40;;
67902;SDS011;54708;43.612;1.568;2023-01-28T11:32:31;12.57;;;7.18;;
67902;SDS011;54708;43.612;1.568;2023-01-28T11:34:57;10.80;;;8.38;;
67902;SDS011;54708;43.612;1.568;2023-01-28T11:37:25;14.30;;;8.68;;
67902;SDS011;54708;43.612;1.568;2023-01-28T11:42:41;13.20;;;7.93;;
67902;SDS011;54708;43.612;1.568;2023-01-28T11:45:09;12.35;;;8.27;;
67902;SDS011;54708;43.612;1.568;2023-01-28T11:47:56;16.52;;;8.60;;
67902;SDS011;54708;43.612;1.568;2023-01-28T11:59:01;13.13;;;8.68;;
67902;SDS011;54708;43.612;1.568;2023-01-28T12:04:22;14.93;;;9.48;;
67902;SDS011;54708;43.612;1.568;2023-01-28T12:07:19;12.90;;;8.98;;
67902;SDS011;54708;43.612;1.568;2023-01-28T12:09:54;16.77;;;9.82;;
67902;SDS011;54708;43.612;1.568;2023-01-28T12:28:44;16.92;;;11.43;;
67902;SDS011;54708;43.612;1.568;2023-01-28T12:42:57;18.25;;;11.57;;
67902;SDS011;54708;43.612;1.568;2023-01-28T12:45:30;19.80;;;10.65;;
67902;SDS011;54708;43.612;1.568;2023-01-28T12:48:01;14.32;;;8.90;;
67902;SDS011;54708;43.612;1.568;2023-01-28T12:50:38;21.40;;;12.77;;
67902;SDS011;54708;43.612;1.568;2023-01-28T12:53:16;21.67;;;12.80;;
67902;SDS011;54708;43.612;1.568;2023-01-28T12:56:14;13.55;;;9.30;;
67902;SDS011;54708;43.612;1.568;2023-01-28T12:58:48;11.90;;;8.52;;
67902;SDS011;54708;43.612;1.568;2023-01-28T13:01:19;12.73;;;8.90;;
67902;SDS011;54708;43.612;1.568;2023-01-28T13:06:32;11.32;;;7.97;;
67902;SDS011;54708;43.612;1.568;2023-01-28T13:09:08;9.88;;;7.57;;
67902;SDS011;54708;43.612;1.568;2023-01-28T13:11:38;10.45;;;7.82;;
67902;SDS011;54708;43.612;1.568;2023-01-28T13:14:04;10.93;;;6.97;;
67902;SDS011;54708;43.612;1.568;2023-01-28T13:16:30;13.27;;;9.30;;
67902;SDS011;54708;43.612;1.568;2023-01-28T13:19:06;11.77;;;8.60;;
67902;SDS011;54708;43.612;1.568;2023-01-28T13:21:33;10.68;;;7.50;;
67902;SDS011;54708;43.612;1.568;2023-01-28T13:24:04;9.75;;;7.43;;
67902;SDS011;54708;43.612;1.568;2023-01-28T13:26:40;12.80;;;9.40;;
67902;SDS011;54708;43.612;1.568;2023-01-28T13:29:16;13.90;;;9.27;;
67902;SDS011;54708;43.612;1.568;2023-01-28T13:31:47;21.50;;;9.05;;
67902;SDS011;54708;43.612;1.568;2023-01-28T13:34:25;10.45;;;8.60;;
67902;SDS011;54708;43.612;1.568;2023-01-28T13:37:22;12.40;;;7.32;;
67902;SDS011;54708;43.612;1.568;2023-01-28T13:42:38;11.27;;;8.48;;
67902;SDS011;54708;43.612;1.568;2023-01-28T13:47:45;8.35;;;7.00;;
67902;SDS011;54708;43.612;1.568;2023-01-28T13:50:15;8.27;;;7.30;;
67902;SDS011;54708;43.612;1.568;2023-01-28T13:52:46;7.15;;;5.93;;
67902;SDS011;54708;43.612;1.568;2023-01-28T13:55:24;8.73;;;7.25;;
67902;SDS011;54708;43.612;1.568;2023-01-28T14:19:36;6.88;;;5.72;;
67902;SDS011;54708;43.612;1.568;2023-01-28T14:22:09;6.10;;;5.18;;
67902;SDS011;54708;43.612;1.568;2023-01-28T14:24:37;5.47;;;4.97;;
67902;SDS011;54708;43.612;1.568;2023-01-28T14:27:15;6.10;;;5.30;;
67902;SDS011;54708;43.612;1.568;2023-01-28T14:29:46;6.30;;;5.20;;
67902;SDS011;54708;43.612;1.568;2023-01-28T14:32:34;7.33;;;5.60;;
67902;SDS011;54708;43.612;1.568;2023-01-28T14:35:03;11.50;;;8.15;;
67902;SDS011;54708;43.612;1.568;2023-01-28T14:37:30;7.97;;;6.32;;
67902;SDS011;54708;43.612;1.568;2023-01-28T14:40:03;9.13;;;5.55;;
67902;SDS011;54708;43.612;1.568;2023-01-28T14:42:31;9.60;;;6.55;;
67902;SDS011;54708;43.612;1.568;2023-01-28T14:55:58;13.40;;;9.35;;
67902;SDS011;54708;43.612;1.568;2023-01-28T14:58:30;20.98;;;12.95;;
67902;SDS011;54708;43.612;1.568;2023-01-28T15:00:58;17.05;;;9.77;;
67902;SDS011;54708;43.612;1.568;2023-01-28T15:03:25;19.27;;;11.48;;
67902;SDS011;54708;43.612;1.568;2023-01-28T15:06:01;21.42;;;11.68;;
67902;SDS011;54708;43.612;1.568;2023-01-28T15:08:46;10.35;;;8.60;;
67902;SDS011;54708;43.612;1.568;2023-01-28T15:11:12;15.50;;;10.45;;
67902;SDS011;54708;43.612;1.568;2023-01-28T15:13:42;13.00;;;9.30;;
67902;SDS011;54708;43.612;1.568;2023-01-28T15:16:17;19.00;;;11.55;;
67902;SDS011;54708;43.612;1.568;2023-01-28T15:18:44;16.92;;;12.75;;
67902;SDS011;54708;43.612;1.568;2023-01-28T15:21:11;22.50;;;11.88;;
67902;SDS011;54708;43.612;1.568;2023-01-28T15:23:37;16.85;;;11.63;;
67902;SDS011;54708;43.612;1.568;2023-01-28T15:26:05;15.38;;;11.70;;
67902;SDS011;54708;43.612;1.568;2023-01-28T15:28:38;20.92;;;14.68;;
67902;SDS011;54708;43.612;1.568;2023-01-28T15:31:04;27.08;;;17.85;;
67902;SDS011;54708;43.612;1.568;2023-01-28T15:33:29;32.72;;;20.45;;
67902;SDS011;54708;43.612;1.568;2023-01-28T15:35:55;68.82;;;42.47;;
67902;SDS011;54708;43.612;1.568;2023-01-28T15:38:22;17.23;;;13.90;;
67902;SDS011;54708;43.612;1.568;2023-01-28T15:40:50;26.52;;;16.70;;
67902;SDS011;54708;43.612;1.568;2023-01-28T15:43:21;16.80;;;10.63;;
67902;SDS011;54708;43.612;1.568;2023-01-28T15:45:49;16.35;;;11.57;;
67902;SDS011;54708;43.612;1.568;2023-01-28T15:48:19;14.98;;;10.30;;
67902;SDS011;54708;43.612;1.568;2023-01-28T15:50:44;12.07;;;10.20;;
67902;SDS011;54708;43.612;1.568;2023-01-28T15:53:11;19.50;;;12.15;;
67902;SDS011;54708;43.612;1.568;2023-01-28T16:00:36;18.50;;;12.93;;
67902;SDS011;54708;43.612;1.568;2023-01-28T16:03:06;18.08;;;10.82;;
67902;SDS011;54708;43.612;1.568;2023-01-28T16:05:37;17.35;;;10.82;;
67902;SDS011;54708;43.612;1.568;2023-01-28T16:08:11;17.65;;;10.65;;
67902;SDS011;54708;43.612;1.568;2023-01-28T16:10:42;16.73;;;11.27;;
67902;SDS011;54708;43.612;1.568;2023-01-28T16:13:18;14.77;;;9.80;;
67902;SDS011;54708;43.612;1.568;2023-01-28T16:15:47;18.15;;;13.63;;
67902;SDS011;54708;43.612;1.568;2023-01-28T16:21:21;41.45;;;27.05;;
67902;SDS011;54708;43.612;1.568;2023-01-28T16:23:58;16.00;;;12.23;;
67902;SDS011;54708;43.612;1.568;2023-01-28T16:26:25;16.52;;;10.52;;
67902;SDS011;54708;43.612;1.568;2023-01-28T16:28:52;12.65;;;9.20;;
67902;SDS011;54708;43.612;1.568;2023-01-28T16:31:18;12.75;;;9.85;;
67902;SDS011;54708;43.612;1.568;2023-01-28T16:33:44;14.73;;;9.48;;
67902;SDS011;54708;43.612;1.568;2023-01-28T16:36:10;16.38;;;11.50;;
67902;SDS011;54708;43.612;1.568;2023-01-28T16:38:37;12.57;;;9.50;;
67902;SDS011;54708;43.612;1.568;2023-01-28T16:41:03;14.23;;;9.63;;
67902;SDS011;54708;43.612;1.568;2023-01-28T16:43:28;17.08;;;10.82;;
67902;SDS011;54708;43.612;1.568;2023-01-28T16:45:54;21.42;;;10.95;;
67902;SDS011;54708;43.612;1.568;2023-01-28T16:48:19;19.55;;;12.45;;
67902;SDS011;54708;43.612;1.568;2023-01-28T16:50:44;12.02;;;9.27;;
67902;SDS011;54708;43.612;1.568;2023-01-28T16:53:20;13.07;;;9.27;;
67902;SDS011;54708;43.612;1.568;2023-01-28T16:55:49;15.43;;;10.60;;
67902;SDS011;54708;43.612;1.568;2023-01-28T16:58:15;18.15;;;10.77;;